Charter Quote
Worldwide +44-20-3874-8091 Call
Select Language Lang
SAFETY RELIABILITY EXPERIENCE

Alpnach Airport (LSMA) - Jet Charter Services

AIRPORT INFORMATION
ICAOLSMA
LOCATIONAlpnach, Switzerland
FACILITY TYPEAIRPORT
Runway Length (ft) Width (ft) Surface Type Elevation (ft)
19/01 4920 130 ASP 1443.04918

At Paramount Business Jets you can hire chartered private jets to and from Alpnach Airport with as little as 4 hours of notice. All flights booked via Paramount Business Jets are operated by certified direct air carriers that meet and exceed the FAA part 135 and 121 protocol or a foreign equivalent safety authority. Furthermore, Paramount Business Jets subscribes to ARGUS for their third party safety checks of operators, aircraft, and crews prior each and every flight to and from Alpnach Airport and worldwide.

  • Quote a trip using Alpnach Airport or call us 24/7 - 365 days a year at +44-20-3874-8091.
Questions? Call +44-20-3874-8091

METAR Weather Data at Alpnach Airport, LSMA

STATIONLSMA
OBSERVEDThu Jun 20, 12:20 UTC
NOWThu Jun 20, 13:02 UTC
AGE42 min ago
WINDvaries at 3 mph
METARLSMA 201220Z AUTO VRB03KT 7000NDV FEW063 21/16 Q1016 RMK

Call us on +44-20-3874-8091 (24 Hours) to Hire a Private Jet or Get a Quick Quote.

Find Airports Near any Location

Processing
...